Terminal Aerodrome Forecast
Issued by NWS

Current Version | Previous Version | Graphics & Text | Print | Product List | Glossary On
Versions: 1 2 3 4 5 6 7 8 9 10 11 12 13 14 15
965
FTUS41 KPBZ 201721
TAFHLG
TAF
KHLG 201721Z 2018/2118 VRB03KT P6SM SKC
     FM211000 00000KT 5SM BR SCT100
     FM211300 20004KT P6SM SCT050=

USA.gov is the U.S. government's official web portal to all federal, state and local government web resources and services.